Time;durP1;ratioP1;P1;durP2;ratioP2;P2;SDS_P1;SDS_P2;PMS_P1;PMS_P2;Temp;Humidity;BMP_temperature;BMP_pressure;BME280_temperature;BME280_humidity;BME280_pressure;Samples;Min_cycle;Max_cycle;Signal;HPM_P1;HPM_P2
2023/10/21 00:03:55;;;;;;;39.90;24.55;;;;;;;;;;8417630;28;20055;-96
2023/10/21 00:07:58;;;;;;;45.35;23.65;;;;;;;;;;8435258;28;20059;-93
2023/10/21 00:12:00;;;;;;;46.17;23.23;;;;;;;;;;8421208;28;20412;-95
2023/10/21 00:16:06;;;;;;;42.55;24.13;;;;;;;;;;8434235;28;20460;-95
2023/10/21 00:20:09;;;;;;;42.13;24.13;;;;;;;;;;8421692;28;20487;-94
2023/10/21 00:24:12;;;;;;;41.38;22.52;;;;;;;;;;8421925;28;20083;-96
2023/10/21 00:28:16;;;;;;;38.88;22.23;;;;;;;;;;8421939;28;20048;-95
2023/10/21 00:32:19;;;;;;;37.53;21.58;;;;;;;;;;8434875;28;20487;-94
2023/10/21 00:36:22;;;;;;;40.05;23.10;;;;;;;;;;8431769;28;20097;-95
2023/10/21 00:40:25;;;;;;;39.30;22.08;;;;;;;;;;8434253;28;20048;-94
2023/10/21 00:44:28;;;;;;;44.85;23.17;;;;;;;;;;8422419;28;20056;-90
2023/10/21 00:48:33;;;;;;;40.08;22.58;;;;;;;;;;8432795;28;20040;-95
2023/10/21 00:52:45;;;;;;;43.03;21.88;;;;;;;;;;8420791;28;20387;-92
2023/10/21 00:56:48;;;;;;;;;;;;;;;;;;8411113;28;20055;-93
2023/10/21 01:00:52;;;;;;;39.90;21.75;;;;;;;;;;8417314;28;19928;-96
2023/10/21 01:04:59;;;;;;;42.90;22.73;;;;;;;;;;8405554;28;20075;-95
2023/10/21 01:09:02;;;;;;;44.28;22.65;;;;;;;;;;8388109;28;20080;-94
2023/10/21 01:13:05;;;;;;;42.25;22.85;;;;;;;;;;8407123;28;20058;-88
2023/10/21 01:17:08;;;;;;;42.17;22.30;;;;;;;;;;8423520;28;20191;-90
2023/10/21 01:21:12;;;;;;;42.90;22.70;;;;;;;;;;8397428;28;20048;-95
2023/10/21 01:25:16;;;;;;;47.55;23.05;;;;;;;;;;8387774;28;20484;-88
2023/10/21 01:29:19;;;;;;;38.25;22.27;;;;;;;;;;8402786;28;20224;-88
2023/10/21 01:33:22;;;;;;;40.55;22.17;;;;;;;;;;8414626;28;20082;-94
2023/10/21 01:37:26;;;;;;;41.05;21.38;;;;;;;;;;8410781;28;20048;-96
2023/10/21 01:41:30;;;;;;;40.72;21.58;;;;;;;;;;8428095;28;20051;-94
2023/10/21 01:45:35;;;;;;;35.63;20.80;;;;;;;;;;8427780;28;20052;-95
2023/10/21 01:49:38;;;;;;;41.38;21.05;;;;;;;;;;8402440;28;20072;-93
2023/10/21 01:53:41;;;;;;;45.40;22.17;;;;;;;;;;8432334;28;20078;-95
2023/10/21 01:57:46;;;;;;;41.55;21.88;;;;;;;;;;8401992;28;21405;-94
2023/10/21 02:01:49;;;;;;;42.85;22.25;;;;;;;;;;8424835;28;20189;-90
2023/10/21 02:05:52;;;;;;;41.35;20.85;;;;;;;;;;8420298;28;20134;-93
2023/10/21 02:09:55;;;;;;;47.35;23.27;;;;;;;;;;8427705;28;20044;-96
2023/10/21 02:13:59;;;;;;;40.78;20.98;;;;;;;;;;8434494;28;20056;-94
2023/10/21 02:18:02;;;;;;;43.83;22.67;;;;;;;;;;8431338;28;20054;-95
2023/10/21 02:22:05;;;;;;;42.65;20.88;;;;;;;;;;8432382;28;20054;-90
2023/10/21 02:26:08;;;;;;;44.50;23.50;;;;;;;;;;8435124;28;20168;-95
2023/10/21 02:30:15;;;;;;;45.97;25.13;;;;;;;;;;8433495;28;20467;-95
2023/10/21 02:34:18;;;;;;;44.92;22.02;;;;;;;;;;8402336;28;20128;-91
2023/10/21 02:38:23;;;;;;;55.55;24.15;;;;;;;;;;8424003;28;20132;-93
2023/10/21 02:42:26;;;;;;;49.65;23.75;;;;;;;;;;8407488;28;20049;-92
2023/10/21 02:46:31;;;;;;;55.55;25.75;;;;;;;;;;8412829;28;20091;-94
2023/10/21 02:50:33;;;;;;;69.78;25.67;;;;;;;;;;8419811;28;20055;-93
2023/10/21 02:54:36;;;;;;;58.50;24.30;;;;;;;;;;8435660;28;20071;-95
2023/10/21 02:58:40;;;;;;;54.25;23.25;;;;;;;;;;8435412;28;20177;-88
2023/10/21 03:02:44;;;;;;;45.65;23.40;;;;;;;;;;8425161;28;20055;-91
2023/10/21 03:06:47;;;;;;;39.10;21.33;;;;;;;;;;8425956;28;20071;-93
2023/10/21 03:10:50;;;;;;;46.72;22.58;;;;;;;;;;8437777;28;20186;-94
2023/10/21 03:14:53;;;;;;;51.28;23.48;;;;;;;;;;8429388;28;20072;-95
2023/10/21 03:18:58;;;;;;;47.95;23.00;;;;;;;;;;8423087;28;20052;-93
2023/10/21 03:23:00;;;;;;;48.20;21.95;;;;;;;;;;8423412;28;20408;-94
2023/10/21 03:27:04;;;;;;;51.50;23.33;;;;;;;;;;8423486;28;20056;-94
2023/10/21 03:31:07;;;;;;;45.50;21.17;;;;;;;;;;8423022;28;20139;-94
2023/10/21 03:35:11;;;;;;;40.38;20.23;;;;;;;;;;8437684;28;20056;-95
2023/10/21 03:39:15;;;;;;;46.10;22.17;;;;;;;;;;8438404;28;20055;-93
2023/10/21 03:43:18;;;;;;;48.13;22.10;;;;;;;;;;8437802;28;20379;-95
2023/10/21 03:47:21;;;;;;;49.78;22.30;;;;;;;;;;8438428;28;20056;-90
2023/10/21 03:51:25;;;;;;;49.00;20.48;;;;;;;;;;8437775;28;20052;-88
2023/10/21 03:55:28;;;;;;;58.72;21.40;;;;;;;;;;8436160;28;20052;-95
2023/10/21 03:59:30;;;;;;;46.05;19.65;;;;;;;;;;8418886;28;20048;-88
2023/10/21 04:03:34;;;;;;;52.60;21.58;;;;;;;;;;8436922;28;20056;-95
2023/10/21 04:07:39;;;;;;;64.35;23.88;;;;;;;;;;8425785;28;20071;-96
2023/10/21 04:11:42;;;;;;;49.22;21.65;;;;;;;;;;8425484;28;20055;-87
2023/10/21 04:15:45;;;;;;;47.97;20.52;;;;;;;;;;8397356;28;20049;-89
2023/10/21 04:19:47;;;;;;;47.35;24.15;;;;;;;;;;8416924;28;20547;-87
2023/10/21 04:23:52;;;;;;;51.00;20.52;;;;;;;;;;8435010;28;20052;-88
2023/10/21 04:27:55;;;;;;;48.92;21.33;;;;;;;;;;8437198;28;20416;-95
2023/10/21 04:31:58;;;;;;;38.60;17.98;;;;;;;;;;8423486;28;20048;-93
2023/10/21 04:36:01;;;;;;;38.63;17.67;;;;;;;;;;8427882;28;20408;-87
2023/10/21 04:40:08;;;;;;;41.67;21.95;;;;;;;;;;8434951;28;20397;-89
2023/10/21 04:44:13;;;;;;;39.67;19.40;;;;;;;;;;8434152;28;20560;-92
2023/10/21 04:48:16;;;;;;;40.58;18.40;;;;;;;;;;8433461;28;20078;-93
2023/10/21 04:52:20;;;;;;;37.53;18.95;;;;;;;;;;8433617;28;20060;-88
2023/10/21 04:56:25;;;;;;;39.47;20.83;;;;;;;;;;8434109;28;20055;-95
2023/10/21 05:00:28;;;;;;;143.77;64.75;;;;;;;;;;8435290;28;20066;-92
2023/10/21 05:04:37;;;;;;;52.55;24.35;;;;;;;;;;8435001;28;20048;-94
2023/10/21 05:08:39;;;;;;;41.65;20.13;;;;;;;;;;8436347;28;20056;-88
2023/10/21 05:12:44;;;;;;;73.65;35.15;;;;;;;;;;8423226;28;20086;-95
2023/10/21 05:16:47;;;;;;;92.95;46.33;;;;;;;;;;8380359;28;20428;-94
2023/10/21 05:20:50;;;;;;;74.70;37.65;;;;;;;;;;8401648;28;20067;-90
2023/10/21 05:24:53;;;;;;;61.00;29.60;;;;;;;;;;8433036;28;20079;-95
2023/10/21 05:29:00;;;;;;;70.05;39.00;;;;;;;;;;8413276;28;20044;-89
2023/10/21 05:33:04;;;;;;;70.45;37.60;;;;;;;;;;8429706;28;20047;-94
2023/10/21 05:37:08;;;;;;;56.88;33.95;;;;;;;;;;8415800;28;20056;-91
2023/10/21 05:41:11;;;;;;;49.03;29.10;;;;;;;;;;8424217;28;20060;-93
2023/10/21 05:45:17;;;;;;;46.88;24.80;;;;;;;;;;8435820;28;20130;-89
2023/10/21 05:49:22;;;;;;;39.15;18.52;;;;;;;;;;8423328;28;20052;-87
2023/10/21 05:53:25;;;;;;;36.30;17.55;;;;;;;;;;8437368;28;20410;-87
2023/10/21 05:57:28;;;;;;;37.00;17.75;;;;;;;;;;8439057;28;20127;-94
2023/10/21 06:01:39;;;;;;;45.35;21.33;;;;;;;;;;8433394;28;20072;-90
2023/10/21 06:05:42;;;;;;;55.22;26.25;;;;;;;;;;8428685;28;20129;-95
2023/10/21 06:09:45;;;;;;;44.85;23.25;;;;;;;;;;8427571;28;20040;-88
2023/10/21 06:13:48;;;;;;;48.00;23.23;;;;;;;;;;8439303;28;20056;-94
2023/10/21 06:17:53;;;;;;;54.15;25.90;;;;;;;;;;8424593;28;20052;-94
2023/10/21 06:21:56;;;;;;;49.53;20.25;;;;;;;;;;8426602;28;20087;-89
2023/10/21 06:25:59;;;;;;;38.55;20.02;;;;;;;;;;8429378;28;20052;-88
2023/10/21 06:30:05;;;;;;;42.70;18.85;;;;;;;;;;8425731;28;20536;-95
2023/10/21 06:34:12;;;;;;;43.55;21.25;;;;;;;;;;8421777;28;20416;-93
2023/10/21 06:38:19;;;;;;;43.70;21.67;;;;;;;;;;8426632;28;20059;-96
2023/10/21 06:42:23;;;;;;;39.25;15.65;;;;;;;;;;8433532;28;20056;-94
2023/10/21 06:46:26;;;;;;;32.28;14.52;;;;;;;;;;8409296;28;20137;-89
2023/10/21 06:50:32;;;;;;;39.35;18.50;;;;;;;;;;8418676;28;20049;-94
2023/10/21 06:54:36;;;;;;;30.60;13.73;;;;;;;;;;8431147;28;20044;-95
2023/10/21 06:58:39;;;;;;;29.20;13.38;;;;;;;;;;8427381;28;20128;-96
2023/10/21 07:02:42;;;;;;;29.70;13.65;;;;;;;;;;8416008;28;20514;-94
2023/10/21 07:06:48;;;;;;;23.85;12.13;;;;;;;;;;8413240;28;20514;-96
2023/10/21 07:10:52;;;;;;;26.25;10.05;;;;;;;;;;8425913;28;20127;-94
2023/10/21 07:14:57;;;;;;;25.77;9.57;;;;;;;;;;8420910;28;20068;-88
2023/10/21 07:19:00;;;;;;;23.70;9.25;;;;;;;;;;8420381;28;20056;-94
2023/10/21 07:23:08;;;;;;;21.77;8.20;;;;;;;;;;8446770;28;20056;-91
2023/10/21 07:27:13;;;;;;;21.42;7.90;;;;;;;;;;8444394;28;20481;-93
2023/10/21 07:31:16;;;;;;;27.67;7.95;;;;;;;;;;8436456;28;20055;-93
2023/10/21 07:35:19;;;;;;;23.85;8.30;;;;;;;;;;8407056;28;20098;-91
2023/10/21 07:39:23;;;;;;;27.80;11.27;;;;;;;;;;8435094;28;20135;-91
2023/10/21 07:43:27;;;;;;;24.15;9.57;;;;;;;;;;8434050;28;20499;-91
2023/10/21 07:47:30;;;;;;;26.27;8.90;;;;;;;;;;8416163;28;20070;-91
2023/10/21 07:51:33;;;;;;;24.65;11.68;;;;;;;;;;8434478;28;20117;-93
2023/10/21 07:55:37;;;;;;;28.52;10.93;;;;;;;;;;8419921;28;20121;-89
2023/10/21 07:59:40;;;;;;;44.50;16.90;;;;;;;;;;8421658;28;20093;-92
2023/10/21 08:03:45;;;;;;;52.15;19.48;;;;;;;;;;8419991;28;20056;-92
2023/10/21 08:07:48;;;;;;;30.63;13.48;;;;;;;;;;8434498;28;20072;-92
2023/10/21 08:11:52;;;;;;;22.70;8.82;;;;;;;;;;8434053;28;20048;-94
2023/10/21 08:15:55;;;;;;;34.25;13.60;;;;;;;;;;8440298;28;20051;-90
2023/10/21 08:19:58;;;;;;;24.10;10.00;;;;;;;;;;8415291;28;20052;-95
2023/10/21 08:24:02;;;;;;;24.20;7.70;;;;;;;;;;8427163;28;20127;-90
2023/10/21 08:28:08;;;;;;;23.40;10.00;;;;;;;;;;8412999;28;20500;-93
2023/10/21 08:32:14;;;;;;;24.50;11.35;;;;;;;;;;8409332;28;20063;-93
2023/10/21 08:36:18;;;;;;;16.30;7.40;;;;;;;;;;8399566;28;20119;-96
2023/10/21 08:40:22;;;;;;;30.40;11.10;;;;;;;;;;8379514;28;20075;-93
2023/10/21 08:44:26;;;;;;;23.98;11.90;;;;;;;;;;8385898;28;20183;-94
2023/10/21 08:48:32;;;;;;;27.63;9.18;;;;;;;;;;8372788;28;20087;-90
2023/10/21 08:52:36;;;;;;;20.98;6.90;;;;;;;;;;8367060;28;20188;-95
2023/10/21 08:56:39;;;;;;;21.70;7.80;;;;;;;;;;8388555;28;20076;-94
2023/10/21 09:00:44;;;;;;;22.75;7.07;;;;;;;;;;8396159;28;20079;-95
2023/10/21 09:04:59;;;;;;;22.48;7.85;;;;;;;;;;8387293;28;20095;-94
2023/10/21 09:09:04;;;;;;;29.98;11.98;;;;;;;;;;8359746;28;20064;-93
2023/10/21 09:13:15;;;;;;;34.83;13.27;;;;;;;;;;8375094;28;20056;-94
2023/10/21 09:17:21;;;;;;;25.73;9.98;;;;;;;;;;8384729;28;20132;-90
2023/10/21 09:21:38;;;;;;;21.73;9.27;;;;;;;;;;8387486;28;20053;-94
2023/10/21 09:25:41;;;;;;;25.73;8.80;;;;;;;;;;8403764;28;20547;-94
2023/10/21 09:29:45;;;;;;;20.48;6.78;;;;;;;;;;8378304;28;20067;-94
2023/10/21 09:33:56;;;;;;;17.70;7.00;;;;;;;;;;8400872;28;20113;-90
2023/10/21 09:38:16;;;;;;;19.73;6.05;;;;;;;;;;8409305;28;20141;-96
2023/10/21 09:42:24;;;;;;;25.83;6.18;;;;;;;;;;8401054;28;20071;-92
2023/10/21 09:46:28;;;;;;;16.10;6.00;;;;;;;;;;8395183;28;20061;-91
2023/10/21 09:50:35;;;;;;;26.05;6.32;;;;;;;;;;8441349;28;20063;-91
2023/10/21 09:54:44;;;;;;;16.98;5.75;;;;;;;;;;8415394;28;20068;-93
2023/10/21 09:58:48;;;;;;;21.65;5.85;;;;;;;;;;8431516;28;20049;-91
2023/10/21 10:02:56;;;;;;;21.13;6.53;;;;;;;;;;8391419;28;20045;-89
2023/10/21 10:07:06;;;;;;;17.80;6.28;;;;;;;;;;8413510;28;20123;-89
2023/10/21 10:11:13;;;;;;;;;;;;;;;;;;8413150;28;20048;-91
2023/10/21 10:15:31;;;;;;;18.75;6.13;;;;;;;;;;8413302;28;19927;-93
2023/10/21 10:19:38;;;;;;;15.55;5.50;;;;;;;;;;8438405;28;20043;-90
2023/10/21 10:23:53;;;;;;;21.50;5.95;;;;;;;;;;8442043;28;20102;-88
2023/10/21 10:28:04;;;;;;;17.27;5.85;;;;;;;;;;8441782;28;20449;-91
2023/10/21 10:32:21;;;;;;;18.48;7.03;;;;;;;;;;8395255;28;20048;-92
2023/10/21 10:36:42;;;;;;;17.52;5.50;;;;;;;;;;8409576;28;20064;-91
2023/10/21 11:24:36;;;;;;;14.10;6.10;;;;;;;;;;8429073;27;1907377;-87
2023/10/21 11:28:39;;;;;;;14.32;5.00;;;;;;;;;;8478148;28;20047;-87
2023/10/21 11:32:42;;;;;;;18.00;5.25;;;;;;;;;;8479507;28;20118;-88
2023/10/21 11:36:48;;;;;;;14.70;5.22;;;;;;;;;;8475810;28;20040;-88
2023/10/21 11:40:52;;;;;;;15.73;5.05;;;;;;;;;;8479646;28;20044;-89
2023/10/21 11:44:56;;;;;;;15.43;4.63;;;;;;;;;;8475454;28;20107;-88
2023/10/21 11:49:00;;;;;;;15.25;5.05;;;;;;;;;;8476917;28;20113;-90
2023/10/21 11:53:06;;;;;;;12.25;4.65;;;;;;;;;;8480878;28;20093;-91
2023/10/21 12:15:18;;;;;;;17.33;5.32;;;;;;;;;;8440295;28;20056;-89
2023/10/21 12:36:33;;;;;;;18.33;5.20;;;;;;;;;;8368217;28;20098;-89
2023/10/21 12:40:36;;;;;;;13.52;5.25;;;;;;;;;;8378235;28;20040;-89
2023/10/21 12:44:47;;;;;;;14.20;5.13;;;;;;;;;;8397472;28;20612;-88
2023/10/21 12:48:54;;;;;;;16.10;5.80;;;;;;;;;;8359552;28;20056;-88
2023/10/21 12:53:13;;;;;;;17.90;5.15;;;;;;;;;;8364944;28;20132;-89
2023/10/21 12:57:16;;;;;;;11.73;5.07;;;;;;;;;;8362176;28;20172;-89
2023/10/21 13:01:20;;;;;;;12.80;4.82;;;;;;;;;;8324093;28;20055;-89
2023/10/21 13:05:24;;;;;;;17.45;5.55;;;;;;;;;;8345338;28;20116;-91
2023/10/21 13:09:29;;;;;;;15.68;6.30;;;;;;;;;;8341821;28;20049;-88
2023/10/21 13:13:37;;;;;;;11.43;5.22;;;;;;;;;;8338826;28;20051;-89
2023/10/21 13:17:41;;;;;;;18.23;6.25;;;;;;;;;;8341349;28;20484;-87
2023/10/21 13:21:55;;;;;;;12.82;6.28;;;;;;;;;;8344783;28;20038;-87
2023/10/21 13:42:06;;;;;;;20.08;6.30;;;;;;;;;;8380900;23;20071;-86
2023/10/21 13:46:09;;;;;;;16.75;6.57;;;;;;;;;;8272853;28;20086;-88
2023/10/21 13:50:15;;;;;;;15.73;6.80;;;;;;;;;;8251301;28;20059;-88
2023/10/21 13:54:19;;;;;;;66.72;27.42;;;;;;;;;;8257755;28;20141;-88
2023/10/21 13:58:25;;;;;;;71.95;29.50;;;;;;;;;;8272516;28;20050;-86
2023/10/21 14:02:31;;;;;;;31.15;13.48;;;;;;;;;;8276351;28;20510;-90
2023/10/21 14:06:34;;;;;;;19.58;9.05;;;;;;;;;;8286014;28;20056;-88
2023/10/21 14:10:39;;;;;;;15.80;9.32;;;;;;;;;;8278458;28;20058;-89
2023/10/21 14:14:46;;;;;;;12.80;6.70;;;;;;;;;;8279678;28;20405;-89
2023/10/21 14:18:50;;;;;;;13.80;6.78;;;;;;;;;;8290745;28;20410;-89
2023/10/21 14:22:54;;;;;;;12.20;6.70;;;;;;;;;;8267475;28;20554;-89
2023/10/21 14:26:57;;;;;;;19.92;11.43;;;;;;;;;;8423536;23;20076;-85
2023/10/21 14:31:03;;;;;;;13.98;7.57;;;;;;;;;;8330951;28;20485;-90
2023/10/21 14:35:08;;;;;;;18.17;8.65;;;;;;;;;;8318419;28;20053;-88
2023/10/21 14:39:10;;;;;;;18.50;8.85;;;;;;;;;;8313680;28;20078;-88
2023/10/21 14:43:15;;;;;;;24.27;13.05;;;;;;;;;;8296492;28;20103;-87
2023/10/21 14:47:20;;;;;;;20.33;11.18;;;;;;;;;;8317487;28;20058;-90
2023/10/21 14:51:23;;;;;;;16.08;7.68;;;;;;;;;;8319421;28;20094;-89
2023/10/21 14:55:26;;;;;;;14.52;7.75;;;;;;;;;;8318586;28;20053;-90
2023/10/21 14:59:30;;;;;;;20.50;10.95;;;;;;;;;;8331262;28;20095;-88
2023/10/21 15:03:35;;;;;;;12.20;7.30;;;;;;;;;;8312249;28;20061;-88
2023/10/21 15:07:38;;;;;;;18.67;8.07;;;;;;;;;;8316370;28;20049;-90
2023/10/21 15:11:41;;;;;;;20.13;8.18;;;;;;;;;;8305378;28;20080;-88
2023/10/21 15:15:45;;;;;;;34.78;10.60;;;;;;;;;;8303787;28;20057;-89
2023/10/21 15:19:53;;;;;;;41.03;11.18;;;;;;;;;;8333117;28;20050;-89
2023/10/21 15:45:46;;;;;;;56.60;26.25;;;;;;;;;;8326578;28;20057;-89
2023/10/21 15:49:52;;;;;;;29.42;15.50;;;;;;;;;;8264146;28;20141;-86
2023/10/21 15:53:55;;;;;;;74.43;37.65;;;;;;;;;;8265662;28;20053;-88
2023/10/21 15:57:59;;;;;;;59.97;28.73;;;;;;;;;;8266520;28;20461;-88
2023/10/21 16:02:02;;;;;;;48.33;25.52;;;;;;;;;;8271493;28;20052;-88
2023/10/21 16:06:08;;;;;;;45.35;23.80;;;;;;;;;;8254044;28;20141;-87
2023/10/21 16:10:11;;;;;;;35.10;20.83;;;;;;;;;;8242453;28;20061;-88
2023/10/21 16:14:15;;;;;;;52.67;25.83;;;;;;;;;;8307080;23;20054;-88
2023/10/21 16:18:18;;;;;;;77.90;30.40;;;;;;;;;;8305319;28;20065;-86
2023/10/21 16:22:23;;;;;;;63.20;27.13;;;;;;;;;;8303981;28;20050;-89
2023/10/21 16:26:27;;;;;;;63.35;26.48;;;;;;;;;;8295173;28;20425;-89
2023/10/21 16:30:31;;;;;;;65.30;28.70;;;;;;;;;;8538209;23;20074;-89
2023/10/21 16:34:36;;;;;;;41.20;16.75;;;;;;;;;;8280501;28;20057;-89
2023/10/21 16:38:43;;;;;;;23.13;12.55;;;;;;;;;;8304306;28;20053;-90
2023/10/21 16:42:47;;;;;;;30.42;15.73;;;;;;;;;;8484752;23;20066;-89
2023/10/21 16:46:54;;;;;;;36.53;17.08;;;;;;;;;;8290122;28;20053;-89
2023/10/21 16:50:58;;;;;;;28.50;12.57;;;;;;;;;;8289665;28;20054;-89
2023/10/21 16:55:05;;;;;;;103.03;43.53;;;;;;;;;;8289052;28;20072;-87
2023/10/21 16:59:10;;;;;;;104.75;45.53;;;;;;;;;;8285252;28;20489;-90
2023/10/21 17:03:13;;;;;;;41.50;17.40;;;;;;;;;;8284224;28;20119;-90
2023/10/21 17:07:19;;;;;;;65.32;24.48;;;;;;;;;;8272098;28;20069;-87
2023/10/21 17:11:25;;;;;;;52.45;22.33;;;;;;;;;;8285254;28;20084;-85
2023/10/21 17:15:29;;;;;;;321.88;143.30;;;;;;;;;;8301083;28;20049;-85
2023/10/21 17:19:34;;;;;;;242.57;111.22;;;;;;;;;;8280132;28;20057;-89
2023/10/21 17:23:40;;;;;;;140.27;55.05;;;;;;;;;;8332407;23;20062;-90
2023/10/21 17:27:46;;;;;;;158.00;70.63;;;;;;;;;;8299763;28;20061;-90
2023/10/21 17:31:50;;;;;;;113.82;51.83;;;;;;;;;;8296090;28;20050;-91
2023/10/21 17:35:54;;;;;;;114.10;54.05;;;;;;;;;;8294736;28;20061;-87
2023/10/21 17:39:57;;;;;;;142.43;65.93;;;;;;;;;;8299182;28;20069;-85
2023/10/21 17:44:04;;;;;;;52.97;23.17;;;;;;;;;;8355168;23;20058;-87
2023/10/21 17:48:10;;;;;;;134.23;62.72;;;;;;;;;;8284319;28;20050;-90
2023/10/21 17:52:16;;;;;;;141.75;56.63;;;;;;;;;;8300592;28;20050;-89
2023/10/21 17:56:21;;;;;;;91.38;42.28;;;;;;;;;;8283050;28;20049;-91
2023/10/21 18:00:38;;;;;;;38.45;18.48;;;;;;;;;;8292949;28;20128;-86
2023/10/21 18:04:56;;;;;;;32.20;13.52;;;;;;;;;;8289247;28;20133;-85
2023/10/21 18:09:09;;;;;;;113.75;42.80;;;;;;;;;;8282531;28;20120;-86
2023/10/21 18:13:15;;;;;;;173.10;72.03;;;;;;;;;;8282570;28;20482;-84
2023/10/21 18:17:23;;;;;;;525.33;139.35;;;;;;;;;;8299707;28;20547;-87
2023/10/21 18:21:28;;;;;;;150.27;47.80;;;;;;;;;;8282721;28;20058;-90
2023/10/21 18:25:32;;;;;;;324.38;89.85;;;;;;;;;;8282845;28;20060;-90
2023/10/21 18:29:38;;;;;;;157.95;58.97;;;;;;;;;;8286846;28;20215;-89
2023/10/21 18:33:46;;;;;;;102.78;48.28;;;;;;;;;;8282701;28;20494;-86
2023/10/21 18:37:56;;;;;;;119.38;52.50;;;;;;;;;;8281646;28;20132;-85
2023/10/21 18:42:04;;;;;;;107.07;44.83;;;;;;;;;;8281247;28;20061;-89
2023/10/21 18:46:08;;;;;;;79.07;36.70;;;;;;;;;;8282016;28;20053;-84
2023/10/21 18:50:20;;;;;;;58.42;27.13;;;;;;;;;;8280010;28;20422;-85
2023/10/21 18:54:25;;;;;;;49.28;22.15;;;;;;;;;;8277860;28;20099;-85
2023/10/21 18:58:32;;;;;;;42.70;19.45;;;;;;;;;;8272573;28;20073;-84
2023/10/21 19:02:37;;;;;;;40.28;18.67;;;;;;;;;;8298438;28;20500;-89
2023/10/21 19:06:46;;;;;;;89.97;33.83;;;;;;;;;;8293892;28;20128;-83
2023/10/21 19:10:54;;;;;;;74.43;27.85;;;;;;;;;;8266977;28;20054;-88
2023/10/21 19:15:01;;;;;;;58.60;25.67;;;;;;;;;;8280542;28;20057;-84
2023/10/21 19:19:07;;;;;;;71.00;31.13;;;;;;;;;;8232019;28;20061;-90
2023/10/21 19:23:16;;;;;;;62.30;25.60;;;;;;;;;;8284419;28;20057;-85
2023/10/21 19:27:22;;;;;;;64.05;25.90;;;;;;;;;;8298436;28;20053;-88
2023/10/21 19:31:27;;;;;;;58.67;27.05;;;;;;;;;;8274094;28;20063;-90
2023/10/21 19:35:32;;;;;;;101.07;45.45;;;;;;;;;;8281697;28;20082;-91
2023/10/21 19:39:39;;;;;;;80.70;35.22;;;;;;;;;;8276189;28;20061;-89
2023/10/21 19:43:46;;;;;;;81.40;35.65;;;;;;;;;;8287568;28;20080;-90
2023/10/21 19:47:54;;;;;;;63.45;26.80;;;;;;;;;;8287062;28;20057;-91
2023/10/21 19:52:00;;;;;;;51.60;23.08;;;;;;;;;;8287468;28;20133;-85
2023/10/21 19:56:08;;;;;;;40.03;18.38;;;;;;;;;;8305238;28;20061;-88
2023/10/21 20:00:15;;;;;;;39.90;17.33;;;;;;;;;;8307092;28;20046;-91
2023/10/21 20:04:22;;;;;;;48.03;22.45;;;;;;;;;;8309193;28;20062;-90
2023/10/21 20:08:26;;;;;;;61.72;31.17;;;;;;;;;;8321174;28;20058;-90
2023/10/21 20:12:32;;;;;;;52.38;27.52;;;;;;;;;;8305351;28;20049;-91
2023/10/21 20:16:38;;;;;;;59.92;29.88;;;;;;;;;;8331497;28;20053;-91
2023/10/21 20:20:44;;;;;;;62.50;29.52;;;;;;;;;;8327689;28;20080;-91
2023/10/21 20:24:52;;;;;;;75.18;33.30;;;;;;;;;;8308415;28;20049;-86
2023/10/21 20:28:59;;;;;;;65.25;29.75;;;;;;;;;;8291144;28;20057;-88
2023/10/21 20:33:06;;;;;;;64.55;25.10;;;;;;;;;;8306032;28;20058;-86
2023/10/21 20:37:10;;;;;;;49.72;24.02;;;;;;;;;;8288533;28;20068;-91
2023/10/21 20:41:15;;;;;;;54.45;24.02;;;;;;;;;;8304973;28;20395;-91
2023/10/21 20:45:24;;;;;;;53.60;23.67;;;;;;;;;;8290979;28;20045;-88
2023/10/21 20:49:28;;;;;;;44.25;22.33;;;;;;;;;;8287683;28;20061;-89
2023/10/21 20:53:32;;;;;;;48.28;22.90;;;;;;;;;;8270933;28;20096;-91
2023/10/21 20:57:39;;;;;;;48.45;20.48;;;;;;;;;;8285867;28;20057;-91
2023/10/21 21:01:49;;;;;;;46.83;20.20;;;;;;;;;;8273144;28;20058;-91
2023/10/21 21:05:52;;;;;;;46.35;21.00;;;;;;;;;;8285939;28;20081;-91
2023/10/21 21:10:01;;;;;;;48.53;22.85;;;;;;;;;;8285340;28;20119;-89
2023/10/21 21:14:04;;;;;;;49.20;22.10;;;;;;;;;;8259167;28;20042;-89
2023/10/21 21:18:09;;;;;;;52.17;22.73;;;;;;;;;;8285914;28;20088;-92
2023/10/21 21:22:13;;;;;;;53.40;23.65;;;;;;;;;;8302207;28;20054;-92
2023/10/21 21:26:16;;;;;;;46.40;21.27;;;;;;;;;;8258606;28;20113;-91
2023/10/21 21:30:20;;;;;;;50.95;23.30;;;;;;;;;;8284902;28;20402;-92
2023/10/21 21:34:27;;;;;;;45.72;22.10;;;;;;;;;;8300609;28;20060;-85
2023/10/21 21:38:32;;;;;;;46.40;20.98;;;;;;;;;;8285005;28;20057;-85
2023/10/21 21:42:36;;;;;;;51.72;21.23;;;;;;;;;;8283907;28;20057;-89
2023/10/21 21:46:40;;;;;;;40.55;18.92;;;;;;;;;;8286027;28;20065;-89
2023/10/21 21:50:47;;;;;;;42.58;20.10;;;;;;;;;;8271935;28;20140;-88
2023/10/21 21:54:50;;;;;;;43.47;19.17;;;;;;;;;;8270520;28;20066;-84
2023/10/21 21:58:57;;;;;;;55.47;23.58;;;;;;;;;;8283493;28;20077;-90
2023/10/21 22:03:00;;;;;;;62.28;25.13;;;;;;;;;;8283599;28;20058;-90
2023/10/21 22:07:08;;;;;;;81.13;31.08;;;;;;;;;;8270684;28;20125;-89
2023/10/21 22:11:11;;;;;;;69.90;28.48;;;;;;;;;;8283834;28;20064;-88
2023/10/21 22:15:17;;;;;;;78.07;27.60;;;;;;;;;;8275658;28;20073;-90
2023/10/21 22:19:21;;;;;;;66.43;26.23;;;;;;;;;;8282479;28;20061;-89
2023/10/21 22:23:31;;;;;;;81.57;27.08;;;;;;;;;;8283200;28;20062;-89
2023/10/21 22:27:35;;;;;;;59.83;24.73;;;;;;;;;;8299072;28;20058;-90
2023/10/21 22:31:38;;;;;;;48.45;21.02;;;;;;;;;;8282266;28;20077;-90
2023/10/21 22:35:41;;;;;;;41.67;19.88;;;;;;;;;;8282336;28;20144;-84
2023/10/21 22:39:49;;;;;;;51.53;21.08;;;;;;;;;;8282516;28;20065;-89
2023/10/21 22:43:52;;;;;;;42.58;21.42;;;;;;;;;;8281337;28;20108;-88
2023/10/21 22:47:55;;;;;;;47.45;20.45;;;;;;;;;;8282401;28;20053;-86
2023/10/21 22:51:59;;;;;;;45.80;21.02;;;;;;;;;;8268923;28;20065;-89
2023/10/21 22:56:06;;;;;;;41.53;20.38;;;;;;;;;;8281630;28;20516;-85
2023/10/21 23:00:12;;;;;;;44.47;20.65;;;;;;;;;;8268431;28;20081;-84
2023/10/21 23:04:17;;;;;;;48.10;19.10;;;;;;;;;;8280993;28;20145;-88
2023/10/21 23:08:22;;;;;;;45.95;22.10;;;;;;;;;;8280959;28;20065;-87
2023/10/21 23:12:28;;;;;;;49.33;21.20;;;;;;;;;;8281133;28;20512;-89
2023/10/21 23:16:31;;;;;;;43.58;20.17;;;;;;;;;;8281352;28;20056;-90
2023/10/21 23:20:38;;;;;;;43.92;18.45;;;;;;;;;;8280775;28;20122;-88
2023/10/21 23:24:41;;;;;;;38.28;18.50;;;;;;;;;;8280634;28;20084;-87
2023/10/21 23:28:46;;;;;;;38.47;17.50;;;;;;;;;;8280095;28;20057;-90
2023/10/21 23:32:49;;;;;;;44.70;19.08;;;;;;;;;;8279989;28;20510;-90
2023/10/21 23:59:37;;;;;;;37.35;17.75;;;;;;;;;;8314566;28;20041;-87
